ADDS METAR Data INFO
IDs: Format: Raw Decoded Include TAF

Data at: 1143 UTC 23 Jun 2018

PARS 231056Z AUTO 00000KT 10SM FEW049 OVC065 08/07 A3010 RMK AO2 SLP196 T00780067 $
PARS 230956Z AUTO 26003KT 10SM OVC065 09/07 A3009 RMK AO2 RAB09E23 SLP194 P0000 T00940067 $
PARS 230856Z AUTO 00000KT 10SM OVC060 09/07 A3008 RMK AO2 SLP190 T00940067 53014 $
PARS 230756Z AUTO 24003KT 10SM SCT050 OVC065 11/05 A3006 RMK AO2 SLP185 T01110050 401500083 $
PARS 230656Z AUTO 30003KT 10SM OVC055 12/06 A3004 RMK AO2 SLP178 T01170056 $
PARS 230556Z AUTO 18005KT 10SM SCT055 13/05 A3004 RMK AO2 SLP176 60000 T01280050 10150 20111 52008 $
PARS 230456Z AUTO 21006KT 10SM SCT037 14/06 A3003 RMK AO2 SLP174 T01390056 $
PARS 230256Z AUTO 21004KT 10SM SCT043 BKN060 14/06 A3002 RMK AO2 SLP168 60000 T01440061 51004 $
PARS 230156Z AUTO 20009KT 10SM BKN040 BKN049 OVC055 14/06 A3001 RMK AO2 SLP168 T01390056 $
PARS 230056Z AUTO 20009KT 10SM FEW025 BKN060 13/07 A3001 RMK AO2 RAB14E33 SLP168 P0000 T01280067 $
PARS 222356Z AUTO 20008KT 10SM BKN033 OVC060 13/06 A3000 RMK AO2 SLP165 60000 T01330061 10139 20100 51008 $
PARS 222256Z AUTO 22012G16KT 10SM SCT033 OVC055 13/06 A3000 RMK AO2 SLP163 T01330061 $
PARS 222156Z AUTO 19009G16KT 10SM FEW039 BKN055 13/06 A2999 RMK AO2 SLP160 T01330056 $
PARS 222056Z AUTO 18012KT 10SM OVC044 12/05 A2998 RMK AO2 SLP157 60000 T01220050 51005 $
PARS 221956Z AUTO 19009KT 10SM SCT024 BKN035 11/06 A2997 RMK AO2 SLP155 T01060056 $
PARS 221932Z AUTO 17008KT 10SM BKN024 BKN031 12/07 A2997 RMK AO2 $
PARS 221920Z AUTO 17010G15KT 10SM SCT024 BKN033 BKN040 12/06 A2997 RMK AO2 $
PARS 221856Z AUTO 19007KT 160V230 10SM SCT020 BKN028 OVC039 11/06 A2997 RMK AO2 RAB30E44 SLP152 P0000 T01110061 $
PARS 221840Z AUTO 18009KT 10SM -RA BKN026 BKN031 OVC041 11/06 A2996 RMK AO2 RAB30 P0000 $
PARS 221823Z AUTO 17009KT 10SM FEW022 BKN030 11/06 A2996 RMK AO2 $
PARS 221813Z AUTO 16009KT 10SM FEW016 BKN029 OVC060 11/06 A2996 RMK AO2 $
PARS 221756Z AUTO 18007KT 10SM SCT016 BKN031 OVC060 09/06 A2995 RMK AO2 SLP148 T00940061 10100 20083 51010 $
PARS 221751Z AUTO 17007KT 10SM BKN016 BKN023 OVC060 10/06 A2995 RMK AO2 $
PARS 221703Z AUTO 18007KT 10SM BKN014 BKN020 OVC025 10/07 A2994 RMK AO2 $
PARS 221656Z AUTO 18007KT 10SM SCT014 BKN020 OVC026 09/07 A2994 RMK AO2 SLP142 T00940067 $
PARS 221633Z AUTO 17007KT 10SM SCT012 BKN026 OVC050 09/07 A2993 RMK AO2 $
PARS 221556Z AUTO 17006KT 10SM SCT010 BKN014 OVC050 09/07 A2992 RMK AO2 SLP138 T00890072 $
PARS 221503Z AUTO 17005KT 10SM SCT008 OVC014 09/07 A2991 RMK AO2 $
PARS 221456Z AUTO 16005KT 10SM SCT008 OVC016 09/07 A2991 RMK AO2 SLP134 T00890072 52014 $
PARS 221445Z AUTO 17005KT 10SM BKN008 OVC012 09/07 A2991 RMK AO2 CIG 007V012 $
PARS 221429Z AUTO 16003KT 10SM BKN012 OVC050 09/07 A2991 RMK AO2 $
PARS 221356Z AUTO 21003KT 10SM FEW012 BKN019 OVC055 08/07 A2990 RMK AO2 SLP129 T00830072 $
PARS 221256Z AUTO 00000KT 10SM OVC050 09/07 A2988 RMK AO2 SLP124 T00890072 $
PARS 221221Z AUTO 21004KT 10SM SCT013 OVC050 09/07 A2988 RMK AO2 $
PARS 221208Z AUTO 20004KT 10SM BKN013 OVC050 09/07 A2988 RMK AO2 $
PARS 221156Z AUTO 19004KT 10SM OVC015 09/07 A2987 RMK AO2 SLP120 70010 T00940072 10117 20089 52022 $
PARS 221130Z AUTO 21005KT 10SM SCT012 BKN018 OVC075 09/07 A2986 RMK AO2 $
PARS 221056Z AUTO 22006KT 10SM OVC012 09/07 A2985 RMK AO2 SLP113 T00940072 $
PARS 221046Z AUTO 22003KT 10SM BKN014 OVC080 09/07 A2985 RMK AO2 $
PARS 220956Z AUTO 20006KT 10SM BKN080 09/07 A2983 RMK AO2 SLP105 T00940072 $
PARS 220941Z AUTO 19004KT 10SM SCT016 09/08 A2982 RMK AO2 $
PARS 220856Z AUTO 20006KT 10SM OVC019 11/08 A2981 RMK AO2 SLP098 T01060078 53020 $
PARS 220845Z AUTO 21006KT 10SM BKN017 BKN060 OVC075 11/08 A2980 RMK AO2 $
PARS 220756Z AUTO 20005KT 10SM FEW017 BKN034 OVC060 11/08 A2979 RMK AO2 SLP090 T01110083 401500100 $
PARS 220709Z AUTO 21007KT 10SM SCT016 BKN036 OVC042 11/08 A2977 RMK AO2 $
PARS 220656Z AUTO 20010KT 10SM BKN016 OVC036 11/08 A2977 RMK AO2 SLP085 T01110083 $
PARS 220556Z AUTO 20009G15KT 10SM OVC016 12/09 A2975 RMK AO2 SLP078 T01170089 10150 20117 53020 $
PARS 220456Z AUTO 19013G19KT 10SM OVC016 12/09 A2973 RMK AO2 SLP071 T01220089 $
PARS 220356Z AUTO 18014G19KT 10SM OVC016 12/09 A2971 RMK AO2 SLP065 T01220094 $
PARS 220256Z AUTO 18015G20KT 10SM OVC012 12/09 A2969 RMK AO2 SLP058 T01220094 51014 $
PARS 220232Z AUTO 19013G20KT 10SM OVC014 12/09 A2969 RMK AO2 $
PARS 220156Z AUTO 18014G20KT 10SM OVC018 13/09 A2968 RMK AO2 SLP054 T01280089 $
PARS 220056Z AUTO 15011G17KT 10SM OVC022 13/09 A2966 RMK AO2 SLP049 T01280089 $
PARS 220006Z AUTO 17014G22KT 10SM BKN027 BKN055 BKN065 14/08 A2965 RMK AO2 $
PARS 212356Z AUTO 17009G19KT 10SM SCT027 BKN035 BKN060 14/09 A2965 RMK AO2 RAB20E51 SLP044 P0000 60003 T01440089 10144 20111 51010 $